Observation data for Seymour on 06/25/2019      Previous  Date  Next       Current Mesonet Observations  Soil Data  Daily Summary Page  Observations in Plain Language
KSE1 250500Z 12013G18KT 25/22 A2989 RMK A01 T02480216  RH  088%=      5-min Rain = 0
KSE1 250505Z 12015KT 25/22 A2987 RMK A01 T02470215  RH  088%=      5-min Rain = 0
KSE1 250510Z 11015KT 25/21 A2987 RMK A01 T02470214  RH  087%=      5-min Rain = 0
KSE1 250515Z 11011G16KT 25/21 A2988 RMK A01 T02470214  RH  087%=      5-min Rain = 0
KSE1 250520Z 11007G13KT 25/21 A2989 RMK A01 T02450214  RH  088%=      5-min Rain = 0
KSE1 250525Z 04003KT 25/21 A299 RMK A01 T02450213  RH  087%=      5-min Rain = 0
KSE1 250530Z 35005KT 25/21 A2991 RMK A01 T02470213  RH  086%=      5-min Rain = 0
KSE1 250535Z 03005KT 25/21 A2991 RMK A01 T02460212  RH  086%=      5-min Rain = 0
KSE1 250540Z 09006KT 24/21 A2989 RMK A01 T02430211  RH  087%=      5-min Rain = 0
KSE1 250545Z 11008KT 24/21 A2988 RMK A01 T02420211  RH  088%=      5-min Rain = 0
KSE1 250550Z 13008KT 24/21 A2989 RMK A01 T02410211  RH  089%=      5-min Rain = 0
KSE1 250555Z 13005KT 24/21 A2989 RMK A01 T02420211  RH  088%=      5-min Rain = 0
KSE1 250600Z 12003KT 24/21 A299 RMK A01 T02410211  RH  088%=      5-min Rain = 0
KSE1 250605Z 09004KT 24/21 A2989 RMK A01 T02380210  RH  089%=      5-min Rain = 0
KSE1 250610Z 09003KT 24/21 A299 RMK A01 T02370210  RH  090%=      5-min Rain = 0
KSE1 250615Z 10005KT 24/21 A2989 RMK A01 T02350209  RH  091%=      5-min Rain = 0
KSE1 250620Z 11005KT 23/21 A2989 RMK A01 T02330208  RH  091%=      5-min Rain = 0
KSE1 250625Z 10006KT 23/21 A299 RMK A01 T02310207  RH  092%=      5-min Rain = 0
KSE1 250630Z 10005KT 23/21 A299 RMK A01 T02300206  RH  092%=      5-min Rain = 0
KSE1 250635Z 10006KT 23/21 A299 RMK A01 T02290206  RH  092%=      5-min Rain = 0
KSE1 250640Z 10006KT 23/21 A2989 RMK A01 T02290206  RH  092%=      5-min Rain = 0
KSE1 250645Z 10007KT 23/21 A2989 RMK A01 T02280206  RH  093%=      5-min Rain = 0
KSE1 250650Z 11007KT 23/21 A2989 RMK A01 T02280205  RH  092%=      5-min Rain = 0
KSE1 250655Z 11008KT 23/20 A2989 RMK A01 T02270203  RH  092%=      5-min Rain = 0
KSE1 250700Z 11008KT 23/20 A2989 RMK A01 T02260201  RH  091%=      5-min Rain = 0
KSE1 250705Z 11009KT 23/20 A2989 RMK A01 T02260199  RH  090%=      5-min Rain = 0
KSE1 250710Z 12009KT 23/20 A2989 RMK A01 T02250197  RH  089%=      5-min Rain = 0
KSE1 250715Z 12008KT 23/20 A2988 RMK A01 T02250197  RH  089%=      5-min Rain = 0
KSE1 250720Z 12008KT 22/20 A2988 RMK A01 T02240197  RH  090%=      5-min Rain = 0
KSE1 250725Z 12008KT 22/20 A2988 RMK A01 T02220197  RH  090%=      5-min Rain = 0
KSE1 250730Z 11009KT 22/20 A2988 RMK A01 T02220195  RH  089%=      5-min Rain = 0
KSE1 250735Z 10007KT 22/19 A2988 RMK A01 T02200193  RH  090%=      5-min Rain = 0
KSE1 250740Z 10007KT 22/19 A2988 RMK A01 T02180194  RH  091%=      5-min Rain = 0
KSE1 250745Z 10006KT 22/19 A2988 RMK A01 T02170194  RH  092%=      5-min Rain = 0
KSE1 250750Z 11006KT 22/19 A2988 RMK A01 T02170194  RH  092%=      5-min Rain = 0
KSE1 250755Z 11007KT 22/19 A2988 RMK A01 T02150193  RH  092%=      5-min Rain = 0
KSE1 250800Z 11007KT 21/19 A2988 RMK A01 T02140193  RH  093%=      5-min Rain = 0
KSE1 250805Z 11006KT 21/19 A2988 RMK A01 T02120191  RH  093%=      5-min Rain = 0
KSE1 250810Z 11006KT 21/19 A2988 RMK A01 T02100190  RH  094%=      5-min Rain = 0
KSE1 250815Z 11005KT 21/19 A2989 RMK A01 T02080190  RH  094%=      5-min Rain = 0
KSE1 250820Z 11006KT 21/19 A2988 RMK A01 T02070189  RH  094%=      5-min Rain = 0
KSE1 250825Z 11006KT 21/19 A2988 RMK A01 T02060188  RH  095%=      5-min Rain = 0
KSE1 250830Z 10005KT 21/19 A2989 RMK A01 T02050188  RH  095%=      5-min Rain = 0
KSE1 250835Z 10004KT 20/19 A2989 RMK A01 T02040188  RH  095%=      5-min Rain = 0
KSE1 250840Z 09002KT 20/19 A2989 RMK A01 T02040187  RH  095%=      5-min Rain = 0
KSE1 250845Z 11001KT 20/19 A2989 RMK A01 T02040187  RH  095%=      5-min Rain = 0
KSE1 250850Z 11002KT 20/19 A2989 RMK A01 T02040187  RH  095%=      5-min Rain = 0
KSE1 250855Z 11002KT 20/19 A2989 RMK A01 T02030187  RH  095%=      5-min Rain = 0
KSE1 250900Z 11003KT 20/19 A2989 RMK A01 T02030187  RH  096%=      5-min Rain = 0
KSE1 250905Z 09003KT 20/19 A2989 RMK A01 T02020186  RH  096%=      5-min Rain = 0
KSE1 250910Z 11003KT 20/19 A2989 RMK A01 T02020186  RH  095%=      5-min Rain = 0
KSE1 250915Z 12003KT 20/18 A2989 RMK A01 T02000183  RH  095%=      5-min Rain = 0
KSE1 250920Z 11003KT 20/19 A299 RMK A01 T02000185  RH  096%=      5-min Rain = 0
KSE1 250925Z 10002KT 20/18 A299 RMK A01 T02000184  RH  096%=      5-min Rain = 0
KSE1 250930Z 10003KT 20/18 A299 RMK A01 T01990184  RH  096%=      5-min Rain = 0
KSE1 250935Z 11001KT 20/18 A299 RMK A01 T01990184  RH  096%=      5-min Rain = 0
KSE1 250940Z 09001KT 20/18 A299 RMK A01 T01980182  RH  096%=      5-min Rain = 0
KSE1 250945Z 06002KT 20/18 A299 RMK A01 T01950179  RH  096%=      5-min Rain = 0
KSE1 250950Z 07003KT 19/18 A299 RMK A01 T01940180  RH  096%=      5-min Rain = 0
KSE1 250955Z 07003KT 20/18 A299 RMK A01 T01960183  RH  097%=      5-min Rain = 0
KSE1 251000Z 08002KT 20/18 A299 RMK A01 T01970183  RH  097%=      5-min Rain = 0
KSE1 251005Z 08002KT 20/18 A299 RMK A01 T01970183  RH  097%=      5-min Rain = 0
KSE1 251010Z 07003KT 20/18 A299 RMK A01 T01980184  RH  097%=      5-min Rain = 0
KSE1 251015Z 08002KT 20/18 A2991 RMK A01 T01980183  RH  096%=      5-min Rain = 0
KSE1 251020Z 08003KT 19/18 A2991 RMK A01 T01930178  RH  096%=      5-min Rain = 0
KSE1 251025Z 09002KT 19/18 A2991 RMK A01 T01920178  RH  097%=      5-min Rain = 0
KSE1 251030Z 09003KT 19/18 A2991 RMK A01 T01900177  RH  097%=      5-min Rain = 0
KSE1 251035Z 09004KT 19/18 A2991 RMK A01 T01890177  RH  097%=      5-min Rain = 0
KSE1 251040Z 09005KT 19/18 A2991 RMK A01 T01900178  RH  098%=      5-min Rain = 0
KSE1 251045Z 10005KT 19/18 A2991 RMK A01 T01890177  RH  098%=      5-min Rain = 0
KSE1 251050Z 11004KT 19/18 A2991 RMK A01 T01860175  RH  098%=      5-min Rain = 0
KSE1 251055Z 11005KT 19/18 A2991 RMK A01 T01860175  RH  098%=      5-min Rain = 0
KSE1 251100Z 12004KT 19/18 A2992 RMK A01 T01870176  RH  098%=      5-min Rain = 0
KSE1 251105Z 11005KT 19/18 A2992 RMK A01 T01860175  RH  098%=      5-min Rain = 0
KSE1 251110Z 13004KT 19/18 A2993 RMK A01 T01870176  RH  098%=      5-min Rain = 0
KSE1 251115Z 13004KT 19/18 A2993 RMK A01 T01870177  RH  099%=      5-min Rain = 0
KSE1 251120Z 13003KT 19/18 A2994 RMK A01 T01880177  RH  099%=      5-min Rain = 0
KSE1 251125Z 14003KT 19/18 A2994 RMK A01 T01890179  RH  099%=      5-min Rain = 0
KSE1 251130Z 13003KT 19/18 A2994 RMK A01 T01890179  RH  099%=      5-min Rain = 0
KSE1 251135Z 12004KT 19/18 A2994 RMK A01 T01910180  RH  099%=      5-min Rain = 0
KSE1 251140Z 13005KT 19/18 A2995 RMK A01 T01920182  RH  099%=      5-min Rain = 0
KSE1 251145Z 12006KT 19/18 A2994 RMK A01 T01940184  RH  099%=      5-min Rain = 0
KSE1 251150Z 13005KT 20/19 A2995 RMK A01 T01960185  RH  099%=      5-min Rain = 0
KSE1 251155Z 13005KT 20/19 A2995 RMK A01 T01970186  RH  099%=      5-min Rain = 0
KSE1 251200Z 13006KT 20/19 A2995 RMK A01 T01980187  RH  099%=      5-min Rain = 0
KSE1 251205Z 14005KT 20/19 A2995 RMK A01 T01990188  RH  098%=      5-min Rain = 0
KSE1 251210Z 14006KT 20/19 A2996 RMK A01 T02000189  RH  098%=      5-min Rain = 0
KSE1 251215Z 14005KT 20/19 A2996 RMK A01 T02020190  RH  098%=      5-min Rain = 0
KSE1 251220Z 14005KT 20/19 A2996 RMK A01 T02030190  RH  098%=      5-min Rain = 0
KSE1 251225Z 14005KT 21/19 A2996 RMK A01 T02050192  RH  098%=      5-min Rain = 0
KSE1 251230Z 14005KT 21/19 A2996 RMK A01 T02060192  RH  097%=      5-min Rain = 0
KSE1 251235Z 14005KT 21/19 A2996 RMK A01 T02070192  RH  096%=      5-min Rain = 0
KSE1 251240Z 14004KT 21/19 A2996 RMK A01 T02100194  RH  096%=      5-min Rain = 0
KSE1 251245Z 15004KT 21/19 A2996 RMK A01 T02110192  RH  094%=      5-min Rain = 0
KSE1 251250Z 16005KT 21/19 A2996 RMK A01 T02130193  RH  093%=      5-min Rain = 0
KSE1 251255Z 16006KT 22/19 A2997 RMK A01 T02150192  RH  092%=      5-min Rain = 0
KSE1 251300Z 16006KT 22/19 A2997 RMK A01 T02160191  RH  090%=      5-min Rain = 0
KSE1 251305Z 16005KT 22/19 A2997 RMK A01 T02190192  RH  089%=      5-min Rain = 0
KSE1 251310Z 16006KT 22/19 A2997 RMK A01 T02210192  RH  089%=      5-min Rain = 0
KSE1 251315Z 16007KT 22/19 A2997 RMK A01 T02230191  RH  087%=      5-min Rain = 0
KSE1 251320Z 16006KT 22/19 A2997 RMK A01 T02240188  RH  085%=      5-min Rain = 0
KSE1 251325Z 16006KT 23/19 A2998 RMK A01 T02280189  RH  083%=      5-min Rain = 0
KSE1 251330Z 15006KT 23/19 A2998 RMK A01 T02310189  RH  082%=      5-min Rain = 0
KSE1 251335Z 16006KT 23/19 A2998 RMK A01 T02340189  RH  080%=      5-min Rain = 0
KSE1 251340Z 16006KT 24/19 A2998 RMK A01 T02350187  RH  078%=      5-min Rain = 0
KSE1 251345Z 16006KT 24/19 A2998 RMK A01 T02380186  RH  077%=      5-min Rain = 0
KSE1 251350Z 17006KT 24/19 A2998 RMK A01 T02400186  RH  076%=      5-min Rain = 0
KSE1 251355Z 18005KT 24/18 A2998 RMK A01 T02420184  RH  074%=      5-min Rain = 0
KSE1 251400Z 16006KT 25/18 A2998 RMK A01 T02460184  RH  072%=      5-min Rain = 0
KSE1 251405Z 16006KT 25/18 A2998 RMK A01 T02490183  RH  071%=      5-min Rain = 0
KSE1 251410Z 16005KT 25/18 A2998 RMK A01 T02510183  RH  069%=      5-min Rain = 0
KSE1 251415Z 16006KT 25/18 A2998 RMK A01 T02540183  RH  068%=      5-min Rain = 0
KSE1 251420Z 16006KT 26/18 A2998 RMK A01 T02560181  RH  067%=      5-min Rain = 0
KSE1 251425Z 16006KT 26/18 A2998 RMK A01 T02590180  RH  065%=      5-min Rain = 0
KSE1 251430Z 17006KT 26/18 A2998 RMK A01 T02610177  RH  063%=      5-min Rain = 0
KSE1 251435Z 17006KT 26/18 A2998 RMK A01 T02640175  RH  061%=      5-min Rain = 0
KSE1 251440Z 17005KT 27/17 A2999 RMK A01 T02670169  RH  058%=      5-min Rain = 0
KSE1 251445Z 17005KT 27/17 A2999 RMK A01 T02700167  RH  056%=      5-min Rain = 0
KSE1 251450Z 17005KT 27/17 A2998 RMK A01 T02720168  RH  056%=      5-min Rain = 0
KSE1 251455Z 19003KT 27/17 A2998 RMK A01 T02720167  RH  055%=      5-min Rain = 0
KSE1 251500Z 19003KT 27/17 A2998 RMK A01 T02720166  RH  055%=      5-min Rain = 0
KSE1 251505Z 17001KT 27/17 A2998 RMK A01 T02740165  RH  054%=      5-min Rain = 0
KSE1 251510Z 21002KT 28/16 A2998 RMK A01 T02770164  RH  053%=      5-min Rain = 0
KSE1 251515Z 17002KT 28/17 A2998 RMK A01 T02790166  RH  053%=      5-min Rain = 0
KSE1 251520Z 19004KT 28/16 A2998 RMK A01 T02790164  RH  052%=      5-min Rain = 0
KSE1 251525Z 19002KT 28/16 A2998 RMK A01 T02790162  RH  051%=      5-min Rain = 0
KSE1 251530Z 22002KT 28/16 A2998 RMK A01 T02820163  RH  051%=      5-min Rain = 0
KSE1 251535Z 23002KT 28/16 A2998 RMK A01 T02830162  RH  050%=      5-min Rain = 0
KSE1 251540Z 22003KT 28/16 A2998 RMK A01 T02830163  RH  050%=      5-min Rain = 0
KSE1 251545Z 16001KT 29/16 A2998 RMK A01 T02860162  RH  049%=      5-min Rain = 0
KSE1 251550Z 18003KT 29/16 A2997 RMK A01 T02870163  RH  049%=      5-min Rain = 0
KSE1 251555Z 19003KT 29/16 A2998 RMK A01 T02860162  RH  049%=      5-min Rain = 0
KSE1 251600Z 18002KT 29/16 A2998 RMK A01 T02870160  RH  048%=      5-min Rain = 0
KSE1 251605Z 20006KT 29/17 A2998 RMK A01 T02900165  RH  049%=      5-min Rain = 0
KSE1 251610Z 21006KT 29/17 A2998 RMK A01 T02910166  RH  049%=      5-min Rain = 0
KSE1 251615Z 23006KT 29/16 A2998 RMK A01 T02920162  RH  048%=      5-min Rain = 0
KSE1 251620Z 24006KT 29/16 A2998 RMK A01 T02930163  RH  048%=      5-min Rain = 0
KSE1 251625Z 23004KT 29/16 A2998 RMK A01 T02930163  RH  048%=      5-min Rain = 0
KSE1 251630Z 24005KT 29/16 A2998 RMK A01 T02930163  RH  048%=      5-min Rain = 0
KSE1 251635Z 25004KT 29/16 A2998 RMK A01 T02940163  RH  047%=      5-min Rain = 0
KSE1 251640Z 24002KT 30/16 A2998 RMK A01 T02950164  RH  047%=      5-min Rain = 0
KSE1 251645Z 23003KT 30/17 A2998 RMK A01 T02950165  RH  048%=      5-min Rain = 0
KSE1 251650Z 20006KT 30/17 A2999 RMK A01 T02960167  RH  048%=      5-min Rain = 0
KSE1 251655Z 18005KT 30/17 A2999 RMK A01 T02970169  RH  048%=      5-min Rain = 0
KSE1 251700Z 19005KT 30/17 A2999 RMK A01 T02960167  RH  048%=      5-min Rain = 0
KSE1 251705Z 21004KT 30/17 A2999 RMK A01 T02990170  RH  048%=      5-min Rain = 0
KSE1 251710Z 21002KT 30/17 A2999 RMK A01 T03000169  RH  047%=      5-min Rain = 0
KSE1 251715Z 12003KT 30/17 A2999 RMK A01 T03040174  RH  048%=      5-min Rain = 0
KSE1 251720Z 16005KT 31/18 A2999 RMK A01 T03060175  RH  048%=      5-min Rain = 0
KSE1 251725Z 16005KT 30/17 A2999 RMK A01 T03040173  RH  048%=      5-min Rain = 0
KSE1 251730Z 21003KT 31/17 A2999 RMK A01 T03050172  RH  047%=      5-min Rain = 0
KSE1 251735Z 21004KT 31/17 A2999 RMK A01 T03070171  RH  046%=      5-min Rain = 0
KSE1 251740Z 17003G8KT 31/17 A2999 RMK A01 T03060169  RH  046%=      5-min Rain = 0
KSE1 251745Z 12003KT 31/17 A2998 RMK A01 T03070172  RH  046%=      5-min Rain = 0
KSE1 251750Z 17006G13KT 31/18 A2998 RMK A01 T03090177  RH  048%=      5-min Rain = 0
KSE1 251755Z 16006KT 31/17 A2998 RMK A01 T03080172  RH  046%=      5-min Rain = 0
KSE1 251800Z 15004KT 31/17 A2998 RMK A01 T03070172  RH  047%=      5-min Rain = 0
KSE1 251805Z 07003KT 31/18 A2998 RMK A01 T03100176  RH  047%=      5-min Rain = 0
KSE1 251810Z 13002KT 31/17 A2998 RMK A01 T03110174  RH  046%=      5-min Rain = 0
KSE1 251815Z 18004KT 32/18 A2998 RMK A01 T03150176  RH  046%=      5-min Rain = 0
KSE1 251820Z 15005G11KT 31/18 A2998 RMK A01 T03120177  RH  047%=      5-min Rain = 0
KSE1 251825Z 15007KT 31/18 A2998 RMK A01 T03110180  RH  048%=      5-min Rain = 0
KSE1 251830Z 15007KT 31/18 A2998 RMK A01 T03130183  RH  048%=      5-min Rain = 0
KSE1 251835Z 15005G10KT 31/18 A2998 RMK A01 T03120181  RH  048%=      5-min Rain = 0
KSE1 251840Z 14007KT 31/18 A2998 RMK A01 T03130181  RH  048%=      5-min Rain = 0
KSE1 251845Z 13006KT 31/18 A2998 RMK A01 T03130182  RH  048%=      5-min Rain = 0
KSE1 251850Z 12007KT 31/18 A2998 RMK A01 T03130183  RH  048%=      5-min Rain = 0
KSE1 251855Z 10007KT 31/18 A2998 RMK A01 T03110184  RH  049%=      5-min Rain = 0
KSE1 251900Z 10006KT 31/18 A2997 RMK A01 T03120184  RH  049%=      5-min Rain = 0
KSE1 251905Z 14008KT 32/19 A2997 RMK A01 T03170188  RH  049%=      5-min Rain = 0
KSE1 251910Z 15008G13KT 32/18 A2997 RMK A01 T03170184  RH  048%=      5-min Rain = 0
KSE1 251915Z 14006G12KT 31/18 A2997 RMK A01 T03140180  RH  047%=      5-min Rain = 0
KSE1 251920Z 12008KT 32/19 A2997 RMK A01 T03160185  RH  048%=      5-min Rain = 0
KSE1 251925Z 13006KT 32/19 A2997 RMK A01 T03170188  RH  049%=      5-min Rain = 0
KSE1 251930Z 13008G13KT 32/19 A2997 RMK A01 T03180188  RH  049%=      5-min Rain = 0
KSE1 251935Z 13008KT 32/19 A2997 RMK A01 T03180188  RH  049%=      5-min Rain = 0
KSE1 251940Z 13007KT 32/19 A2997 RMK A01 T03200188  RH  048%=      5-min Rain = 0
KSE1 251945Z 14008KT 32/19 A2997 RMK A01 T03180185  RH  048%=      5-min Rain = 0
KSE1 251950Z 14006KT 32/19 A2997 RMK A01 T03170185  RH  048%=      5-min Rain = 0
KSE1 251955Z 15006G12KT 32/19 A2996 RMK A01 T03190186  RH  048%=      5-min Rain = 0
KSE1 252000Z 14006KT 32/19 A2996 RMK A01 T03200189  RH  048%=      5-min Rain = 0
KSE1 252005Z 12006KT 32/19 A2996 RMK A01 T03230191  RH  048%=      5-min Rain = 0
KSE1 252010Z 13007KT 32/19 A2996 RMK A01 T03230190  RH  048%=      5-min Rain = 0
KSE1 252015Z 16009KT 32/19 A2996 RMK A01 T03220185  RH  047%=      5-min Rain = 0
KSE1 252020Z 18005KT 32/18 A2996 RMK A01 T03190180  RH  046%=      5-min Rain = 0
KSE1 252025Z 15006G11KT 32/18 A2995 RMK A01 T03210184  RH  047%=      5-min Rain = 0
KSE1 252030Z 17007KT 32/19 A2995 RMK A01 T03230187  RH  047%=      5-min Rain = 0
KSE1 252035Z 17007KT 32/18 A2995 RMK A01 T03210180  RH  046%=      5-min Rain = 0
KSE1 252040Z 18006KT 32/18 A2995 RMK A01 T03210180  RH  045%=      5-min Rain = 0
KSE1 252045Z 17009KT 32/18 A2995 RMK A01 T03220181  RH  045%=      5-min Rain = 0
KSE1 252050Z 14008KT 33/18 A2995 RMK A01 T03250183  RH  045%=      5-min Rain = 0
KSE1 252055Z 14006KT 33/19 A2994 RMK A01 T03280185  RH  045%=      5-min Rain = 0
KSE1 252100Z 13006KT 33/18 A2994 RMK A01 T03270183  RH  045%=      5-min Rain = 0
KSE1 252105Z 15007KT 33/18 A2994 RMK A01 T03270179  RH  044%=      5-min Rain = 0
KSE1 252110Z 12007KT 33/19 A2994 RMK A01 T03270187  RH  046%=      5-min Rain = 0
KSE1 252115Z 14005G10KT 33/18 A2994 RMK A01 T03280181  RH  044%=      5-min Rain = 0
KSE1 252120Z 13008KT 33/18 A2994 RMK A01 T03290182  RH  044%=      5-min Rain = 0
KSE1 252125Z 14006KT 33/18 A2993 RMK A01 T03280184  RH  045%=      5-min Rain = 0
KSE1 252130Z 14008G14KT 33/19 A2993 RMK A01 T03300191  RH  046%=      5-min Rain = 0
KSE1 252135Z 15009G14KT 33/18 A2993 RMK A01 T03300183  RH  044%=      5-min Rain = 0
KSE1 252140Z 15009G14KT 33/18 A2993 RMK A01 T03290178  RH  043%=      5-min Rain = 0
KSE1 252145Z 15008G14KT 33/18 A2993 RMK A01 T03280180  RH  044%=      5-min Rain = 0
KSE1 252150Z 14010KT 33/18 A2992 RMK A01 T03290182  RH  044%=      5-min Rain = 0
KSE1 252155Z 14007KT 33/18 A2992 RMK A01 T03290183  RH  044%=      5-min Rain = 0
KSE1 252200Z 13007KT 33/19 A2992 RMK A01 T03300186  RH  045%=      5-min Rain = 0
KSE1 252205Z 12010KT 33/18 A2992 RMK A01 T03300184  RH  045%=      5-min Rain = 0
KSE1 252210Z 11012KT 33/19 A2992 RMK A01 T03270187  RH  046%=      5-min Rain = 0
KSE1 252215Z 13011KT 33/18 A2992 RMK A01 T03270184  RH  045%=      5-min Rain = 0
KSE1 252220Z 14010KT 33/18 A2992 RMK A01 T03280184  RH  045%=      5-min Rain = 0
KSE1 252225Z 14010KT 33/18 A2992 RMK A01 T03300184  RH  045%=      5-min Rain = 0
KSE1 252230Z 13010KT 33/18 A2991 RMK A01 T03280182  RH  044%=      5-min Rain = 0
KSE1 252235Z 13010KT 33/19 A2991 RMK A01 T03290187  RH  045%=      5-min Rain = 0
KSE1 252240Z 13010KT 33/19 A2991 RMK A01 T03290185  RH  045%=      5-min Rain = 0
KSE1 252245Z 12011KT 33/18 A2991 RMK A01 T03270182  RH  045%=      5-min Rain = 0
KSE1 252250Z 13012KT 33/18 A2991 RMK A01 T03260178  RH  044%=      5-min Rain = 0
KSE1 252255Z 13012KT 33/18 A2991 RMK A01 T03260180  RH  044%=      5-min Rain = 0
KSE1 252300Z 13013KT 33/18 A2991 RMK A01 T03260179  RH  044%=      5-min Rain = 0
KSE1 252305Z 13012KT 33/18 A2991 RMK A01 T03260181  RH  044%=      5-min Rain = 0
KSE1 252310Z 14010KT 33/18 A2991 RMK A01 T03250182  RH  045%=      5-min Rain = 0
KSE1 252315Z 13011KT 33/18 A2991 RMK A01 T03250183  RH  045%=      5-min Rain = 0
KSE1 252320Z 13012KT 32/18 A2991 RMK A01 T03240179  RH  044%=      5-min Rain = 0
KSE1 252325Z 14012KT 32/18 A2991 RMK A01 T03230177  RH  044%=      5-min Rain = 0
KSE1 252330Z 14012G17KT 32/18 A2991 RMK A01 T03230176  RH  044%=      5-min Rain = 0
KSE1 252335Z 14012G17KT 32/18 A2991 RMK A01 T03220175  RH  044%=      5-min Rain = 0
KSE1 252340Z 13011KT 32/18 A2991 RMK A01 T03230176  RH  044%=      5-min Rain = 0
KSE1 252345Z 13014KT 32/17 A2991 RMK A01 T03210173  RH  043%=      5-min Rain = 0
KSE1 252350Z 14013KT 32/17 A2991 RMK A01 T03200172  RH  043%=      5-min Rain = 0
KSE1 252355Z 13013KT 32/17 A2991 RMK A01 T03200172  RH  043%=      5-min Rain = 0
KSE1 260000Z 13012G18KT 32/17 A299 RMK A01 T03190172  RH  044%=      5-min Rain = 0
KSE1 260005Z 14012KT 32/18 A299 RMK A01 T03180175  RH  045%=      5-min Rain = 0
KSE1 260010Z 15011KT 32/17 A299 RMK A01 T03170173  RH  044%=      5-min Rain = 0
KSE1 260015Z 14011G16KT 32/18 A2991 RMK A01 T03170176  RH  045%=      5-min Rain = 0
KSE1 260020Z 13011G16KT 32/17 A2991 RMK A01 T03160173  RH  045%=      5-min Rain = 0
KSE1 260025Z 14011KT 32/17 A2991 RMK A01 T03150171  RH  044%=      5-min Rain = 0
KSE1 260030Z 14011KT 31/17 A2991 RMK A01 T03140173  RH  045%=      5-min Rain = 0
KSE1 260035Z 13012KT 31/18 A2992 RMK A01 T03130178  RH  047%=      5-min Rain = 0
KSE1 260040Z 13012KT 31/18 A2992 RMK A01 T03110181  RH  048%=      5-min Rain = 0
KSE1 260045Z 13011KT 31/18 A2992 RMK A01 T03080181  RH  049%=      5-min Rain = 0
KSE1 260050Z 13011KT 30/18 A2992 RMK A01 T03040179  RH  049%=      5-min Rain = 0
KSE1 260055Z 13012G17KT 30/18 A2992 RMK A01 T03010177  RH  050%=      5-min Rain = 0
KSE1 260100Z 13010KT 30/18 A2992 RMK A01 T02980178  RH  051%=      5-min Rain = 0
KSE1 260105Z 13009KT 30/18 A2992 RMK A01 T02950177  RH  052%=      5-min Rain = 0
KSE1 260110Z 13009KT 29/18 A2992 RMK A01 T02920175  RH  052%=      5-min Rain = 0
KSE1 260115Z 12007KT 29/18 A2993 RMK A01 T02900176  RH  053%=      5-min Rain = 0
KSE1 260120Z 12007KT 29/18 A2994 RMK A01 T02870177  RH  054%=      5-min Rain = 0
KSE1 260125Z 12006KT 28/18 A2994 RMK A01 T02840180  RH  056%=      5-min Rain = 0
KSE1 260130Z 12006KT 28/18 A2994 RMK A01 T02790181  RH  058%=      5-min Rain = 0
KSE1 260135Z 12007KT 28/18 A2994 RMK A01 T02780182  RH  059%=      5-min Rain = 0
KSE1 260140Z 13007KT 28/18 A2994 RMK A01 T02780183  RH  060%=      5-min Rain = 0
KSE1 260145Z 12006KT 28/19 A2995 RMK A01 T02770186  RH  061%=      5-min Rain = 0
KSE1 260150Z 12006KT 27/19 A2995 RMK A01 T02740187  RH  062%=      5-min Rain = 0
KSE1 260155Z 12007KT 27/19 A2995 RMK A01 T02730187  RH  062%=      5-min Rain = 0
KSE1 260200Z 12007KT 27/19 A2995 RMK A01 T02730187  RH  063%=      5-min Rain = 0
KSE1 260205Z 12006KT 27/19 A2995 RMK A01 T02700187  RH  064%=      5-min Rain = 0
KSE1 260210Z 12007KT 27/19 A2995 RMK A01 T02680186  RH  064%=      5-min Rain = 0
KSE1 260215Z 13007KT 27/19 A2995 RMK A01 T02680186  RH  064%=      5-min Rain = 0
KSE1 260220Z 13006KT 27/19 A2995 RMK A01 T02680185  RH  064%=      5-min Rain = 0
KSE1 260225Z 13006KT 27/19 A2995 RMK A01 T02680185  RH  064%=      5-min Rain = 0
KSE1 260230Z 13007KT 27/19 A2995 RMK A01 T02680185  RH  064%=      5-min Rain = 0
KSE1 260235Z 14007KT 27/19 A2996 RMK A01 T02690185  RH  063%=      5-min Rain = 0
KSE1 260240Z 13008KT 27/19 A2996 RMK A01 T02700186  RH  063%=      5-min Rain = 0
KSE1 260245Z 13007KT 27/19 A2996 RMK A01 T02700187  RH  064%=      5-min Rain = 0
KSE1 260250Z 13006KT 27/19 A2996 RMK A01 T02690187  RH  065%=      5-min Rain = 0
KSE1 260255Z 13006KT 27/19 A2997 RMK A01 T02660188  RH  066%=      5-min Rain = 0
KSE1 260300Z 13005KT 27/19 A2997 RMK A01 T02650188  RH  066%=      5-min Rain = 0
KSE1 260305Z 13005KT 26/19 A2998 RMK A01 T02640189  RH  067%=      5-min Rain = 0
KSE1 260310Z 13005KT 26/19 A2998 RMK A01 T02610188  RH  068%=      5-min Rain = 0
KSE1 260315Z 13004KT 26/19 A2999 RMK A01 T02590189  RH  069%=      5-min Rain = 0
KSE1 260320Z 13004KT 26/19 A2999 RMK A01 T02570190  RH  070%=      5-min Rain = 0
KSE1 260325Z 12004KT 25/19 A2999 RMK A01 T02540191  RH  072%=      5-min Rain = 0
KSE1 260330Z 13005KT 25/19 A30 RMK A01 T02520191  RH  073%=      5-min Rain = 0
KSE1 260335Z 13004KT 25/19 A30 RMK A01 T02530191  RH  072%=      5-min Rain = 0
KSE1 260340Z 12003KT 25/19 A3001 RMK A01 T02530192  RH  073%=      5-min Rain = 0
KSE1 260345Z 11002KT 26/19 A3001 RMK A01 T02560192  RH  072%=      5-min Rain = 0
KSE1 260350Z 11003KT 26/19 A3002 RMK A01 T02570191  RH  071%=      5-min Rain = 0
KSE1 260355Z 08002KT 26/19 A3002 RMK A01 T02590191  RH  070%=      5-min Rain = 0
KSE1 260400Z 03002KT 26/19 A3003 RMK A01 T02580193  RH  071%=      5-min Rain = 0
KSE1 260405Z 01003KT 26/19 A3004 RMK A01 T02560194  RH  072%=      5-min Rain = 0
KSE1 260410Z 34003KT 26/19 A3005 RMK A01 T02580194  RH  072%=      5-min Rain = 0
KSE1 260415Z 33006KT 26/19 A3005 RMK A01 T02570194  RH  072%=      5-min Rain = 0
KSE1 260420Z 33005KT 26/19 A3005 RMK A01 T02570191  RH  071%=      5-min Rain = 0
KSE1 260425Z 33003KT 26/19 A3005 RMK A01 T02600191  RH  070%=      5-min Rain = 0
KSE1 260430Z 33002KT 26/19 A3004 RMK A01 T02620191  RH  069%=      5-min Rain = 0
KSE1 260435Z 27000KT 26/19 A3004 RMK A01 T02600193  RH  070%=      5-min Rain = 0
KSE1 260440Z 32001KT 26/19 A3004 RMK A01 T02560193  RH  072%=      5-min Rain = 0
KSE1 260445Z 34000KT 26/19 A3004 RMK A01 T02590192  RH  070%=      5-min Rain = 0
KSE1 260450Z 34000KT 26/19 A3004 RMK A01 T02600192  RH  070%=      5-min Rain = 0
KSE1 260455Z 17001KT 26/20 A3004 RMK A01 T02550197  RH  074%=      5-min Rain = 0

Page generated in 0.017 seconds.